sensor_id;sensor_type;location;lat;lon;timestamp;pressure;altitude;pressure_sealevel;temperature;humidity
50310;BME280;36207;51.850;21.698;2023-01-24T00:01:16;102061.33;;;2.89;85.31
50310;BME280;36207;51.850;21.698;2023-01-24T00:03:42;102058.47;;;2.90;85.39
50310;BME280;36207;51.850;21.698;2023-01-24T00:06:08;102062.55;;;2.90;85.24
50310;BME280;36207;51.850;21.698;2023-01-24T00:08:34;102063.53;;;2.88;85.21
50310;BME280;36207;51.850;21.698;2023-01-24T00:11:02;102057.49;;;2.89;85.19
50310;BME280;36207;51.850;21.698;2023-01-24T00:13:29;102053.27;;;2.93;85.39
50310;BME280;36207;51.850;21.698;2023-01-24T00:16:05;102058.78;;;2.95;85.33
50310;BME280;36207;51.850;21.698;2023-01-24T00:18:32;102060.23;;;2.94;85.25
50310;BME280;36207;51.850;21.698;2023-01-24T00:21:07;102063.73;;;2.91;85.17
50310;BME280;36207;51.850;21.698;2023-01-24T00:23:42;102065.73;;;2.89;85.27
50310;BME280;36207;51.850;21.698;2023-01-24T00:26:08;102070.13;;;2.89;85.32
50310;BME280;36207;51.850;21.698;2023-01-24T00:28:34;102068.89;;;2.90;85.31
50310;BME280;36207;51.850;21.698;2023-01-24T00:31:01;102072.58;;;2.89;85.29
50310;BME280;36207;51.850;21.698;2023-01-24T00:33:27;102072.15;;;2.91;85.35
50310;BME280;36207;51.850;21.698;2023-01-24T00:35:53;102071.88;;;2.93;85.32
50310;BME280;36207;51.850;21.698;2023-01-24T00:38:20;102068.73;;;2.93;85.25
50310;BME280;36207;51.850;21.698;2023-01-24T00:40:46;102070.05;;;2.91;85.32
50310;BME280;36207;51.850;21.698;2023-01-24T00:43:13;102068.79;;;2.92;85.31
50310;BME280;36207;51.850;21.698;2023-01-24T00:45:39;102065.66;;;2.91;85.40
50310;BME280;36207;51.850;21.698;2023-01-24T00:48:06;102068.77;;;2.92;85.25
50310;BME280;36207;51.850;21.698;2023-01-24T00:50:33;102069.67;;;2.91;85.30
50310;BME280;36207;51.850;21.698;2023-01-24T00:53:00;102068.75;;;2.89;85.18
50310;BME280;36207;51.850;21.698;2023-01-24T00:55:27;102067.66;;;2.86;85.17
50310;BME280;36207;51.850;21.698;2023-01-24T00:57:52;102072.79;;;2.86;85.31
50310;BME280;36207;51.850;21.698;2023-01-24T01:00:20;102069.02;;;2.84;85.20
50310;BME280;36207;51.850;21.698;2023-01-24T01:02:50;102064.52;;;2.82;85.21
50310;BME280;36207;51.850;21.698;2023-01-24T01:05:17;102061.27;;;2.80;85.21
50310;BME280;36207;51.850;21.698;2023-01-24T01:07:43;102059.80;;;2.78;85.26
50310;BME280;36207;51.850;21.698;2023-01-24T01:10:10;102060.12;;;2.76;85.25
50310;BME280;36207;51.850;21.698;2023-01-24T01:12:36;102056.91;;;2.73;85.37
50310;BME280;36207;51.850;21.698;2023-01-24T01:15:03;102058.77;;;2.74;85.48
50310;BME280;36207;51.850;21.698;2023-01-24T01:17:29;102058.75;;;2.79;85.55
50310;BME280;36207;51.850;21.698;2023-01-24T01:19:55;102060.84;;;2.79;85.44
50310;BME280;36207;51.850;21.698;2023-01-24T01:22:21;102062.49;;;2.81;85.43
50310;BME280;36207;51.850;21.698;2023-01-24T01:24:47;102059.83;;;2.82;85.44
50310;BME280;36207;51.850;21.698;2023-01-24T01:27:13;102056.02;;;2.80;85.46
50310;BME280;36207;51.850;21.698;2023-01-24T01:29:39;102059.54;;;2.80;85.34
50310;BME280;36207;51.850;21.698;2023-01-24T01:32:05;102058.84;;;2.80;85.49
50310;BME280;36207;51.850;21.698;2023-01-24T01:34:31;102057.52;;;2.81;85.43
50310;BME280;36207;51.850;21.698;2023-01-24T01:36:57;102055.13;;;2.83;85.56
50310;BME280;36207;51.850;21.698;2023-01-24T01:39:23;102054.06;;;2.84;85.46
50310;BME280;36207;51.850;21.698;2023-01-24T01:41:49;102054.09;;;2.83;85.48
50310;BME280;36207;51.850;21.698;2023-01-24T01:44:28;102054.07;;;2.83;85.52
50310;BME280;36207;51.850;21.698;2023-01-24T01:52:28;102057.03;;;2.84;85.49
50310;BME280;36207;51.850;21.698;2023-01-24T01:54:58;102058.79;;;2.84;85.47
50310;BME280;36207;51.850;21.698;2023-01-24T01:57:29;102059.67;;;2.84;85.50
50310;BME280;36207;51.850;21.698;2023-01-24T02:00:04;102057.04;;;2.84;85.51
50310;BME280;36207;51.850;21.698;2023-01-24T02:02:32;102059.40;;;2.86;85.41
50310;BME280;36207;51.850;21.698;2023-01-24T02:05:01;102057.60;;;2.87;85.45
50310;BME280;36207;51.850;21.698;2023-01-24T02:07:34;102055.81;;;2.87;85.53
50310;BME280;36207;51.850;21.698;2023-01-24T02:10:03;102051.70;;;2.85;85.41
50310;BME280;36207;51.850;21.698;2023-01-24T02:12:37;102048.58;;;2.81;85.38
50310;BME280;36207;51.850;21.698;2023-01-24T02:15:11;102048.07;;;2.80;85.57
50310;BME280;36207;51.850;21.698;2023-01-24T02:17:56;102048.67;;;2.79;85.44
50310;BME280;36207;51.850;21.698;2023-01-24T02:20:44;102049.32;;;2.80;85.51
50310;BME280;36207;51.850;21.698;2023-01-24T02:28:41;102051.77;;;2.81;85.62
50310;BME280;36207;51.850;21.698;2023-01-24T02:31:08;102048.64;;;2.80;85.57
50310;BME280;36207;51.850;21.698;2023-01-24T02:33:34;102049.16;;;2.80;85.53
50310;BME280;36207;51.850;21.698;2023-01-24T02:36:15;102046.20;;;2.83;85.61
50310;BME280;36207;51.850;21.698;2023-01-24T02:38:47;102043.84;;;2.84;85.78
50310;BME280;36207;51.850;21.698;2023-01-24T02:41:16;102047.60;;;2.86;85.68
50310;BME280;36207;51.850;21.698;2023-01-24T02:43:47;102046.28;;;2.85;85.45
50310;BME280;36207;51.850;21.698;2023-01-24T02:46:15;102043.20;;;2.83;85.52
50310;BME280;36207;51.850;21.698;2023-01-24T02:48:41;102047.85;;;2.81;85.60
50310;BME280;36207;51.850;21.698;2023-01-24T02:51:06;102051.35;;;2.82;85.67
50310;BME280;36207;51.850;21.698;2023-01-24T02:53:51;102051.25;;;2.84;85.68
50310;BME280;36207;51.850;21.698;2023-01-24T02:56:17;102047.85;;;2.85;85.61
50310;BME280;36207;51.850;21.698;2023-01-24T02:59:02;102043.86;;;2.84;85.64
50310;BME280;36207;51.850;21.698;2023-01-24T03:01:28;102044.23;;;2.83;85.62
50310;BME280;36207;51.850;21.698;2023-01-24T03:03:55;102048.33;;;2.82;85.52
50310;BME280;36207;51.850;21.698;2023-01-24T03:06:21;102049.89;;;2.83;85.62
50310;BME280;36207;51.850;21.698;2023-01-24T03:08:47;102048.26;;;2.84;85.61
50310;BME280;36207;51.850;21.698;2023-01-24T03:11:13;102049.08;;;2.85;85.58
50310;BME280;36207;51.850;21.698;2023-01-24T03:13:39;102053.98;;;2.85;85.66
50310;BME280;36207;51.850;21.698;2023-01-24T03:16:24;102051.83;;;2.83;85.73
50310;BME280;36207;51.850;21.698;2023-01-24T03:19:08;102047.65;;;2.82;85.67
50310;BME280;36207;51.850;21.698;2023-01-24T03:21:53;102041.30;;;2.82;85.66
50310;BME280;36207;51.850;21.698;2023-01-24T03:24:38;102042.46;;;2.83;85.65
50310;BME280;36207;51.850;21.698;2023-01-24T03:27:22;102041.45;;;2.83;85.67
50310;BME280;36207;51.850;21.698;2023-01-24T03:30:09;102036.28;;;2.84;85.78
50310;BME280;36207;51.850;21.698;2023-01-24T03:33:00;102036.33;;;2.86;85.81
50310;BME280;36207;51.850;21.698;2023-01-24T03:35:47;102035.27;;;2.87;85.66
50310;BME280;36207;51.850;21.698;2023-01-24T03:38:23;102037.06;;;2.86;85.48
50310;BME280;36207;51.850;21.698;2023-01-24T03:41:07;102036.50;;;2.86;85.70
50310;BME280;36207;51.850;21.698;2023-01-24T03:43:35;102036.10;;;2.87;85.72
50310;BME280;36207;51.850;21.698;2023-01-24T03:46:01;102037.80;;;2.88;85.79
50310;BME280;36207;51.850;21.698;2023-01-24T03:48:27;102042.83;;;2.90;85.69
50310;BME280;36207;51.850;21.698;2023-01-24T03:51:03;102041.52;;;2.88;85.60
50310;BME280;36207;51.850;21.698;2023-01-24T03:53:47;102040.27;;;2.89;85.68
50310;BME280;36207;51.850;21.698;2023-01-24T03:56:14;102039.05;;;2.88;85.62
50310;BME280;36207;51.850;21.698;2023-01-24T03:58:39;102038.48;;;2.89;85.76
50310;BME280;36207;51.850;21.698;2023-01-24T04:01:05;102039.13;;;2.90;85.74
50310;BME280;36207;51.850;21.698;2023-01-24T04:03:32;102036.81;;;2.91;85.67
50310;BME280;36207;51.850;21.698;2023-01-24T04:05:58;102037.39;;;2.90;85.67
50310;BME280;36207;51.850;21.698;2023-01-24T04:08:24;102040.61;;;2.89;85.64
50310;BME280;36207;51.850;21.698;2023-01-24T04:10:50;102042.35;;;2.89;85.67
50310;BME280;36207;51.850;21.698;2023-01-24T04:13:16;102045.23;;;2.91;85.75
50310;BME280;36207;51.850;21.698;2023-01-24T04:15:42;102047.10;;;2.93;85.78
50310;BME280;36207;51.850;21.698;2023-01-24T04:18:10;102045.00;;;2.92;85.81
50310;BME280;36207;51.850;21.698;2023-01-24T04:20:37;102050.85;;;2.92;85.61
50310;BME280;36207;51.850;21.698;2023-01-24T04:23:05;102050.10;;;2.89;85.62
50310;BME280;36207;51.850;21.698;2023-01-24T04:25:31;102051.41;;;2.87;85.65
50310;BME280;36207;51.850;21.698;2023-01-24T04:27:58;102053.64;;;2.88;85.71
50310;BME280;36207;51.850;21.698;2023-01-24T04:30:24;102051.58;;;2.91;85.78
50310;BME280;36207;51.850;21.698;2023-01-24T04:32:50;102055.89;;;2.93;85.72
50310;BME280;36207;51.850;21.698;2023-01-24T04:35:18;102056.39;;;2.94;85.68
50310;BME280;36207;51.850;21.698;2023-01-24T04:37:45;102056.07;;;2.89;85.54
50310;BME280;36207;51.850;21.698;2023-01-24T04:40:12;102057.34;;;2.88;85.63
50310;BME280;36207;51.850;21.698;2023-01-24T04:42:38;102059.55;;;2.89;85.68
50310;BME280;36207;51.850;21.698;2023-01-24T04:45:05;102060.00;;;2.91;85.64
50310;BME280;36207;51.850;21.698;2023-01-24T04:47:32;102059.65;;;2.91;85.69
50310;BME280;36207;51.850;21.698;2023-01-24T04:49:58;102064.70;;;2.93;85.73
50310;BME280;36207;51.850;21.698;2023-01-24T04:52:23;102061.64;;;2.90;85.60
50310;BME280;36207;51.850;21.698;2023-01-24T04:54:49;102057.65;;;2.89;85.58
50310;BME280;36207;51.850;21.698;2023-01-24T04:57:18;102057.11;;;2.89;85.53
50310;BME280;36207;51.850;21.698;2023-01-24T04:59:44;102058.52;;;2.90;85.71
50310;BME280;36207;51.850;21.698;2023-01-24T05:02:10;102067.85;;;2.89;85.56
50310;BME280;36207;51.850;21.698;2023-01-24T05:04:36;102073.48;;;2.89;85.56
50310;BME280;36207;51.850;21.698;2023-01-24T05:07:03;102077.45;;;2.87;85.55
50310;BME280;36207;51.850;21.698;2023-01-24T05:09:29;102075.00;;;2.83;85.50
50310;BME280;36207;51.850;21.698;2023-01-24T05:11:54;102077.80;;;2.81;85.49
50310;BME280;36207;51.850;21.698;2023-01-24T05:14:20;102086.54;;;2.81;85.50
50310;BME280;36207;51.850;21.698;2023-01-24T05:16:46;102084.73;;;2.82;85.62
50310;BME280;36207;51.850;21.698;2023-01-24T05:19:12;102087.48;;;2.84;85.73
50310;BME280;36207;51.850;21.698;2023-01-24T05:21:38;102086.67;;;2.86;85.69
50310;BME280;36207;51.850;21.698;2023-01-24T05:24:04;102081.39;;;2.86;85.55
50310;BME280;36207;51.850;21.698;2023-01-24T05:26:30;102082.05;;;2.83;85.66
50310;BME280;36207;51.850;21.698;2023-01-24T05:28:56;102084.76;;;2.82;85.62
50310;BME280;36207;51.850;21.698;2023-01-24T05:31:22;102086.52;;;2.82;85.53
50310;BME280;36207;51.850;21.698;2023-01-24T05:33:48;102088.70;;;2.84;85.66
50310;BME280;36207;51.850;21.698;2023-01-24T05:36:20;102086.48;;;2.86;85.65
50310;BME280;36207;51.850;21.698;2023-01-24T05:38:47;102084.19;;;2.86;85.79
50310;BME280;36207;51.850;21.698;2023-01-24T05:41:15;102082.16;;;2.85;85.71
50310;BME280;36207;51.850;21.698;2023-01-24T05:43:45;102082.73;;;2.84;85.58
50310;BME280;36207;51.850;21.698;2023-01-24T05:46:14;102085.61;;;2.83;85.53
50310;BME280;36207;51.850;21.698;2023-01-24T05:48:44;102087.85;;;2.84;85.73
50310;BME280;36207;51.850;21.698;2023-01-24T05:51:12;102088.85;;;2.85;85.64
50310;BME280;36207;51.850;21.698;2023-01-24T05:53:40;102089.02;;;2.85;85.69
50310;BME280;36207;51.850;21.698;2023-01-24T05:56:10;102093.65;;;2.84;85.55
50310;BME280;36207;51.850;21.698;2023-01-24T05:58:39;102098.38;;;2.81;85.64
50310;BME280;36207;51.850;21.698;2023-01-24T06:01:14;102101.42;;;2.80;85.58
50310;BME280;36207;51.850;21.698;2023-01-24T06:03:43;102104.71;;;2.81;85.60
50310;BME280;36207;51.850;21.698;2023-01-24T06:06:10;102105.06;;;2.80;85.69
50310;BME280;36207;51.850;21.698;2023-01-24T06:08:37;102105.48;;;2.83;85.75
50310;BME280;36207;51.850;21.698;2023-01-24T06:11:26;102106.06;;;2.85;85.77
50310;BME280;36207;51.850;21.698;2023-01-24T06:13:54;102108.75;;;2.84;85.63
50310;BME280;36207;51.850;21.698;2023-01-24T06:16:23;102109.29;;;2.84;85.60
50310;BME280;36207;51.850;21.698;2023-01-24T06:18:50;102110.87;;;2.84;85.79
50310;BME280;36207;51.850;21.698;2023-01-24T06:21:19;102116.40;;;2.86;85.81
50310;BME280;36207;51.850;21.698;2023-01-24T06:23:48;102120.70;;;2.88;85.80
50310;BME280;36207;51.850;21.698;2023-01-24T06:26:15;102121.20;;;2.88;85.67
50310;BME280;36207;51.850;21.698;2023-01-24T06:28:41;102124.07;;;2.87;85.62
50310;BME280;36207;51.850;21.698;2023-01-24T06:39:16;102128.02;;;2.86;85.84
50310;BME280;36207;51.850;21.698;2023-01-24T06:41:42;102129.05;;;2.86;85.78
50310;BME280;36207;51.850;21.698;2023-01-24T06:44:12;102133.55;;;2.84;85.70
50310;BME280;36207;51.850;21.698;2023-01-24T06:46:38;102138.53;;;2.83;85.62
50310;BME280;36207;51.850;21.698;2023-01-24T06:49:04;102140.28;;;2.83;85.81
50310;BME280;36207;51.850;21.698;2023-01-24T06:51:30;102136.06;;;2.87;85.73
50310;BME280;36207;51.850;21.698;2023-01-24T06:53:57;102137.90;;;2.89;85.69
50310;BME280;36207;51.850;21.698;2023-01-24T06:56:23;102136.45;;;2.89;85.66
50310;BME280;36207;51.850;21.698;2023-01-24T06:58:49;102140.38;;;2.89;85.77
50310;BME280;36207;51.850;21.698;2023-01-24T07:01:15;102141.10;;;2.88;85.75
50310;BME280;36207;51.850;21.698;2023-01-24T07:03:40;102146.04;;;2.88;85.77
50310;BME280;36207;51.850;21.698;2023-01-24T07:06:06;102146.94;;;2.87;85.87
50310;BME280;36207;51.850;21.698;2023-01-24T07:08:32;102148.50;;;2.91;85.82
50310;BME280;36207;51.850;21.698;2023-01-24T07:10:58;102152.30;;;2.93;85.82
50310;BME280;36207;51.850;21.698;2023-01-24T07:13:25;102150.16;;;2.94;85.90
50310;BME280;36207;51.850;21.698;2023-01-24T07:15:51;102147.73;;;2.93;85.82
50310;BME280;36207;51.850;21.698;2023-01-24T07:18:18;102140.21;;;2.92;85.91
50310;BME280;36207;51.850;21.698;2023-01-24T07:20:45;102140.53;;;2.92;85.85
50310;BME280;36207;51.850;21.698;2023-01-24T07:23:23;102140.27;;;2.94;85.91
50310;BME280;36207;51.850;21.698;2023-01-24T07:25:51;102141.95;;;2.96;85.96
50310;BME280;36207;51.850;21.698;2023-01-24T07:28:18;102140.95;;;2.98;86.02
50310;BME280;36207;51.850;21.698;2023-01-24T07:30:44;102143.19;;;2.99;85.89
50310;BME280;36207;51.850;21.698;2023-01-24T07:33:13;102147.48;;;2.98;85.80
50310;BME280;36207;51.850;21.698;2023-01-24T07:35:43;102143.46;;;2.97;85.85
50310;BME280;36207;51.850;21.698;2023-01-24T07:38:09;102143.54;;;2.99;85.80
50310;BME280;36207;51.850;21.698;2023-01-24T07:40:38;102141.11;;;3.02;85.96
50310;BME280;36207;51.850;21.698;2023-01-24T07:43:04;102140.50;;;3.04;86.00
50310;BME280;36207;51.850;21.698;2023-01-24T07:45:31;102142.83;;;3.06;86.00
50310;BME280;36207;51.850;21.698;2023-01-24T07:48:00;102147.92;;;3.06;85.99
50310;BME280;36207;51.850;21.698;2023-01-24T07:50:27;102151.05;;;3.07;86.08
50310;BME280;36207;51.850;21.698;2023-01-24T07:52:55;102152.30;;;3.10;86.08
50310;BME280;36207;51.850;21.698;2023-01-24T07:55:22;102149.15;;;3.13;86.03
50310;BME280;36207;51.850;21.698;2023-01-24T07:57:49;102150.30;;;3.15;86.02
50310;BME280;36207;51.850;21.698;2023-01-24T08:00:15;102150.07;;;3.16;86.05
50310;BME280;36207;51.850;21.698;2023-01-24T08:02:42;102159.50;;;3.18;86.05
50310;BME280;36207;51.850;21.698;2023-01-24T08:05:10;102163.20;;;3.17;86.04
50310;BME280;36207;51.850;21.698;2023-01-24T08:07:36;102163.80;;;3.16;85.90
50310;BME280;36207;51.850;21.698;2023-01-24T08:10:03;102165.65;;;3.18;86.13
50310;BME280;36207;51.850;21.698;2023-01-24T08:12:29;102160.75;;;3.21;86.24
50310;BME280;36207;51.850;21.698;2023-01-24T08:14:55;102159.39;;;3.23;86.12
50310;BME280;36207;51.850;21.698;2023-01-24T08:17:21;102161.22;;;3.25;86.20
50310;BME280;36207;51.850;21.698;2023-01-24T08:19:47;102159.85;;;3.24;86.03
50310;BME280;36207;51.850;21.698;2023-01-24T08:22:13;102161.60;;;3.24;85.97
50310;BME280;36207;51.850;21.698;2023-01-24T08:24:38;102156.08;;;3.26;86.07
50310;BME280;36207;51.850;21.698;2023-01-24T08:27:04;102149.17;;;3.30;86.14
50310;BME280;36207;51.850;21.698;2023-01-24T08:29:31;102154.36;;;3.31;86.12
50310;BME280;36207;51.850;21.698;2023-01-24T08:31:58;102153.79;;;3.32;86.21
50310;BME280;36207;51.850;21.698;2023-01-24T08:34:25;102149.92;;;3.32;86.11
50310;BME280;36207;51.850;21.698;2023-01-24T08:36:51;102151.40;;;3.31;85.93
50310;BME280;36207;51.850;21.698;2023-01-24T08:39:17;102150.77;;;3.33;86.19
50310;BME280;36207;51.850;21.698;2023-01-24T08:41:43;102146.91;;;3.36;86.14
50310;BME280;36207;51.850;21.698;2023-01-24T08:44:13;102152.33;;;3.40;86.34
50310;BME280;36207;51.850;21.698;2023-01-24T08:46:39;102157.10;;;3.43;86.27
50310;BME280;36207;51.850;21.698;2023-01-24T08:49:05;102153.90;;;3.44;86.27
50310;BME280;36207;51.850;21.698;2023-01-24T08:51:34;102152.38;;;3.43;86.13
50310;BME280;36207;51.850;21.698;2023-01-24T08:54:00;102155.71;;;3.43;86.10
50310;BME280;36207;51.850;21.698;2023-01-24T08:56:26;102152.25;;;3.45;86.14
50310;BME280;36207;51.850;21.698;2023-01-24T08:58:52;102149.88;;;3.46;86.18
50310;BME280;36207;51.850;21.698;2023-01-24T09:01:18;102149.23;;;3.45;85.98
50310;BME280;36207;51.850;21.698;2023-01-24T09:03:45;102153.95;;;3.46;86.20
50310;BME280;36207;51.850;21.698;2023-01-24T09:06:11;102154.50;;;3.49;86.21
50310;BME280;36207;51.850;21.698;2023-01-24T09:08:37;102159.00;;;3.54;86.27
50310;BME280;36207;51.850;21.698;2023-01-24T09:11:03;102158.96;;;3.58;86.19
50310;BME280;36207;51.850;21.698;2023-01-24T09:13:29;102159.84;;;3.62;86.17
50310;BME280;36207;51.850;21.698;2023-01-24T09:15:57;102162.70;;;3.67;86.30
50310;BME280;36207;51.850;21.698;2023-01-24T09:18:24;102156.48;;;3.68;86.21
50310;BME280;36207;51.850;21.698;2023-01-24T09:20:50;102157.56;;;3.71;86.40
50310;BME280;36207;51.850;21.698;2023-01-24T09:23:16;102155.63;;;3.74;86.16
50310;BME280;36207;51.850;21.698;2023-01-24T09:25:49;102148.39;;;3.78;86.20
50310;BME280;36207;51.850;21.698;2023-01-24T09:28:15;102149.98;;;3.81;86.19
50310;BME280;36207;51.850;21.698;2023-01-24T09:30:44;102149.95;;;3.85;86.24
50310;BME280;36207;51.850;21.698;2023-01-24T09:33:10;102144.70;;;3.87;86.13
50310;BME280;36207;51.850;21.698;2023-01-24T09:35:35;102140.62;;;3.88;86.24
50310;BME280;36207;51.850;21.698;2023-01-24T09:38:01;102136.48;;;3.89;86.11
50310;BME280;36207;51.850;21.698;2023-01-24T09:40:43;102133.98;;;3.93;86.28
50310;BME280;36207;51.850;21.698;2023-01-24T09:43:19;102130.19;;;4.01;86.38
50310;BME280;36207;51.850;21.698;2023-01-24T09:48:40;102123.15;;;4.08;86.12
50310;BME280;36207;51.850;21.698;2023-01-24T09:51:14;102118.19;;;4.08;86.15
50310;BME280;36207;51.850;21.698;2023-01-24T09:53:43;102116.72;;;4.09;86.04
50310;BME280;36207;51.850;21.698;2023-01-24T09:56:22;102114.20;;;4.10;86.13
50310;BME280;36207;51.850;21.698;2023-01-24T09:59:10;102115.92;;;4.14;86.15
50310;BME280;36207;51.850;21.698;2023-01-24T10:01:38;102114.92;;;4.16;86.07
50310;BME280;36207;51.850;21.698;2023-01-24T10:12:46;102122.77;;;4.11;85.99
50310;BME280;36207;51.850;21.698;2023-01-24T10:23:36;102130.15;;;4.18;85.81
50310;BME280;36207;51.850;21.698;2023-01-24T10:26:15;102132.06;;;4.18;85.99
50310;BME280;36207;51.850;21.698;2023-01-24T10:28:52;102130.97;;;4.19;86.10
50310;BME280;36207;51.850;21.698;2023-01-24T10:31:29;102133.69;;;4.21;85.89
50310;BME280;36207;51.850;21.698;2023-01-24T10:34:00;102134.67;;;4.22;85.79
50310;BME280;36207;51.850;21.698;2023-01-24T10:36:43;102134.67;;;4.22;85.92
50310;BME280;36207;51.850;21.698;2023-01-24T10:39:10;102135.52;;;4.23;85.88
50310;BME280;36207;51.850;21.698;2023-01-24T10:41:37;102134.25;;;4.20;85.68
50310;BME280;36207;51.850;21.698;2023-01-24T10:44:41;102131.38;;;4.18;85.82
50310;BME280;36207;51.850;21.698;2023-01-24T10:49:53;102136.31;;;4.18;85.76
50310;BME280;36207;51.850;21.698;2023-01-24T10:52:23;102136.43;;;4.19;85.84
50310;BME280;36207;51.850;21.698;2023-01-24T10:54:54;102136.98;;;4.19;85.65
50310;BME280;36207;51.850;21.698;2023-01-24T11:02:40;102128.19;;;4.18;85.77
50310;BME280;36207;51.850;21.698;2023-01-24T11:05:12;102129.68;;;4.20;85.97
50310;BME280;36207;51.850;21.698;2023-01-24T11:07:45;102129.46;;;4.21;85.86
50310;BME280;36207;51.850;21.698;2023-01-24T11:10:20;102131.58;;;4.20;85.81
50310;BME280;36207;51.850;21.698;2023-01-24T11:12:55;102128.08;;;4.20;85.91
50310;BME280;36207;51.850;21.698;2023-01-24T11:15:29;102126.70;;;4.19;85.83
50310;BME280;36207;51.850;21.698;2023-01-24T11:18:13;102124.17;;;4.20;85.84
50310;BME280;36207;51.850;21.698;2023-01-24T11:20:42;102124.92;;;4.23;86.05
50310;BME280;36207;51.850;21.698;2023-01-24T11:23:18;102124.52;;;4.24;86.00
50310;BME280;36207;51.850;21.698;2023-01-24T11:28:32;102123.27;;;4.21;85.87
50310;BME280;36207;51.850;21.698;2023-01-24T11:31:14;102121.56;;;4.20;85.94
50310;BME280;36207;51.850;21.698;2023-01-24T11:45:28;102110.97;;;4.23;85.78
50310;BME280;36207;51.850;21.698;2023-01-24T11:59:43;102114.69;;;4.23;85.79
50310;BME280;36207;51.850;21.698;2023-01-24T12:02:29;102112.59;;;4.23;85.91
50310;BME280;36207;51.850;21.698;2023-01-24T12:11:00;102105.74;;;4.25;85.95
50310;BME280;36207;51.850;21.698;2023-01-24T12:13:42;102109.17;;;4.24;85.87
50310;BME280;36207;51.850;21.698;2023-01-24T12:19:43;102109.13;;;4.24;85.76
50310;BME280;36207;51.850;21.698;2023-01-24T12:22:18;102103.44;;;4.25;85.85
50310;BME280;36207;51.850;21.698;2023-01-24T12:24:51;102106.75;;;4.26;85.88
50310;BME280;36207;51.850;21.698;2023-01-24T12:27:23;102103.15;;;4.28;85.71
50310;BME280;36207;51.850;21.698;2023-01-24T12:29:59;102102.85;;;4.27;85.93
50310;BME280;36207;51.850;21.698;2023-01-24T12:35:28;102101.26;;;4.23;85.71
50310;BME280;36207;51.850;21.698;2023-01-24T12:41:00;102093.52;;;4.23;85.73
50310;BME280;36207;51.850;21.698;2023-01-24T12:43:34;102086.16;;;4.20;85.59
50310;BME280;36207;51.850;21.698;2023-01-24T12:46:18;102083.86;;;4.19;85.79
50310;BME280;36207;51.850;21.698;2023-01-24T12:48:48;102078.38;;;4.20;85.82
50310;BME280;36207;51.850;21.698;2023-01-24T12:51:52;102081.30;;;4.21;85.65
50310;BME280;36207;51.850;21.698;2023-01-24T12:54:28;102082.18;;;4.24;85.72
50310;BME280;36207;51.850;21.698;2023-01-24T12:59:36;102083.73;;;4.28;85.88
50310;BME280;36207;51.850;21.698;2023-01-24T13:12:54;102076.84;;;4.28;85.75
50310;BME280;36207;51.850;21.698;2023-01-24T13:15:28;102075.05;;;4.29;85.78
50310;BME280;36207;51.850;21.698;2023-01-24T13:18:09;102073.84;;;4.29;85.77
50310;BME280;36207;51.850;21.698;2023-01-24T13:21:00;102072.63;;;4.25;85.54
50310;BME280;36207;51.850;21.698;2023-01-24T13:23:50;102069.23;;;4.22;85.66
50310;BME280;36207;51.850;21.698;2023-01-24T13:26:31;102063.39;;;4.23;85.75
50310;BME280;36207;51.850;21.698;2023-01-24T13:29:06;102061.89;;;4.21;85.58
50310;BME280;36207;51.850;21.698;2023-01-24T13:32:06;102064.90;;;4.18;85.58
50310;BME280;36207;51.850;21.698;2023-01-24T13:34:38;102061.42;;;4.17;85.53
50310;BME280;36207;51.850;21.698;2023-01-24T13:37:17;102065.27;;;4.18;85.60
50310;BME280;36207;51.850;21.698;2023-01-24T13:39:46;102068.64;;;4.17;85.62
50310;BME280;36207;51.850;21.698;2023-01-24T13:44:38;102067.79;;;4.20;85.66
50310;BME280;36207;51.850;21.698;2023-01-24T13:47:25;102069.43;;;4.19;85.46
50310;BME280;36207;51.850;21.698;2023-01-24T14:00:44;102068.95;;;4.12;85.42
50310;BME280;36207;51.850;21.698;2023-01-24T14:03:21;102060.37;;;4.11;85.46
50310;BME280;36207;51.850;21.698;2023-01-24T14:06:12;102060.90;;;4.08;85.34
50310;BME280;36207;51.850;21.698;2023-01-24T14:09:03;102059.52;;;4.05;85.37
50310;BME280;36207;51.850;21.698;2023-01-24T14:11:38;102060.35;;;4.05;85.36
50310;BME280;36207;51.850;21.698;2023-01-24T14:14:29;102057.42;;;4.04;85.47
50310;BME280;36207;51.850;21.698;2023-01-24T14:16:58;102052.88;;;4.03;85.54
50310;BME280;36207;51.850;21.698;2023-01-24T14:19:28;102054.48;;;4.02;85.51
50310;BME280;36207;51.850;21.698;2023-01-24T14:22:03;102053.64;;;4.02;85.40
50310;BME280;36207;51.850;21.698;2023-01-24T14:24:35;102056.45;;;4.02;85.38
50310;BME280;36207;51.850;21.698;2023-01-24T14:29:42;102061.32;;;4.07;85.54
50310;BME280;36207;51.850;21.698;2023-01-24T14:32:33;102055.46;;;4.08;85.51
50310;BME280;36207;51.850;21.698;2023-01-24T14:35:18;102050.95;;;4.06;85.40
50310;BME280;36207;51.850;21.698;2023-01-24T14:37:45;102047.83;;;4.05;85.47
50310;BME280;36207;51.850;21.698;2023-01-24T14:42:43;102043.69;;;4.03;85.50
50310;BME280;36207;51.850;21.698;2023-01-24T14:45:15;102047.33;;;4.05;85.50
50310;BME280;36207;51.850;21.698;2023-01-24T14:47:46;102046.63;;;4.05;85.52
50310;BME280;36207;51.850;21.698;2023-01-24T14:50:32;102044.98;;;4.02;85.42
50310;BME280;36207;51.850;21.698;2023-01-24T14:53:22;102045.19;;;3.99;85.50
50310;BME280;36207;51.850;21.698;2023-01-24T14:55:51;102044.81;;;3.96;85.43
50310;BME280;36207;51.850;21.698;2023-01-24T14:58:24;102047.34;;;3.95;85.35
50310;BME280;36207;51.850;21.698;2023-01-24T15:00:52;102051.03;;;3.95;85.47
50310;BME280;36207;51.850;21.698;2023-01-24T15:03:25;102049.48;;;3.95;85.53
50310;BME280;36207;51.850;21.698;2023-01-24T15:06:06;102050.36;;;3.94;85.54
50310;BME280;36207;51.850;21.698;2023-01-24T15:08:33;102053.27;;;3.93;85.62